sensor_id;sensor_type;location;lat;lon;timestamp;noise_LAeq;noise_LA_min;noise_LA_max;noise_LA01;noise_LA95
72415;Laerm;60995;52.154;4.498;2023-06-24T00:01:33;44.98;36.23;57.35;;
72415;Laerm;60995;52.154;4.498;2023-06-24T00:03:50;42.89;36.20;52.90;;
72415;Laerm;60995;52.154;4.498;2023-06-24T00:06:09;43.63;36.12;53.61;;
72415;Laerm;60995;52.154;4.498;2023-06-24T00:08:26;43.90;36.29;54.54;;
72415;Laerm;60995;52.154;4.498;2023-06-24T00:10:50;45.64;36.74;56.40;;
72415;Laerm;60995;52.154;4.498;2023-06-24T00:13:06;43.69;35.56;65.67;;
72415;Laerm;60995;52.154;4.498;2023-06-24T00:15:23;44.72;37.17;53.24;;
72415;Laerm;60995;52.154;4.498;2023-06-24T00:17:39;44.47;36.29;53.18;;
72415;Laerm;60995;52.154;4.498;2023-06-24T00:19:56;43.69;36.31;58.59;;
72415;Laerm;60995;52.154;4.498;2023-06-24T00:22:12;43.29;36.46;52.90;;
72415;Laerm;60995;52.154;4.498;2023-06-24T00:24:29;47.14;36.22;65.46;;
72415;Laerm;60995;52.154;4.498;2023-06-24T00:26:48;42.52;36.21;52.57;;
72415;Laerm;60995;52.154;4.498;2023-06-24T00:29:05;43.70;36.09;54.48;;
72415;Laerm;60995;52.154;4.498;2023-06-24T00:31:21;43.29;36.25;52.00;;
72415;Laerm;60995;52.154;4.498;2023-06-24T00:33:37;43.73;36.70;53.73;;
72415;Laerm;60995;52.154;4.498;2023-06-24T00:35:54;45.54;37.14;68.85;;
72415;Laerm;60995;52.154;4.498;2023-06-24T00:38:12;43.98;36.86;60.19;;
72415;Laerm;60995;52.154;4.498;2023-06-24T00:40:29;43.21;36.48;53.23;;
72415;Laerm;60995;52.154;4.498;2023-06-24T00:42:46;45.04;36.64;58.80;;
72415;Laerm;60995;52.154;4.498;2023-06-24T00:45:04;43.49;36.37;52.08;;
72415;Laerm;60995;52.154;4.498;2023-06-24T00:47:20;43.87;36.31;54.21;;
72415;Laerm;60995;52.154;4.498;2023-06-24T00:49:37;45.44;36.99;56.46;;
72415;Laerm;60995;52.154;4.498;2023-06-24T00:51:54;44.00;36.43;54.65;;
72415;Laerm;60995;52.154;4.498;2023-06-24T00:54:11;43.19;36.18;52.14;;
72415;Laerm;60995;52.154;4.498;2023-06-24T00:56:35;44.63;36.29;53.47;;
72415;Laerm;60995;52.154;4.498;2023-06-24T00:58:58;46.12;37.45;58.68;;
72415;Laerm;60995;52.154;4.498;2023-06-24T01:01:18;45.33;36.93;58.43;;
72415;Laerm;60995;52.154;4.498;2023-06-24T01:03:36;45.71;36.78;63.46;;
72415;Laerm;60995;52.154;4.498;2023-06-24T01:05:56;45.94;36.21;61.28;;
72415;Laerm;60995;52.154;4.498;2023-06-24T01:08:13;43.91;35.48;54.36;;
72415;Laerm;60995;52.154;4.498;2023-06-24T01:10:31;45.05;37.03;63.19;;
72415;Laerm;60995;52.154;4.498;2023-06-24T01:12:48;47.05;36.70;60.59;;
72415;Laerm;60995;52.154;4.498;2023-06-24T01:15:07;43.07;36.20;52.93;;
72415;Laerm;60995;52.154;4.498;2023-06-24T01:20:41;43.93;36.63;59.39;;
72415;Laerm;60995;52.154;4.498;2023-06-24T01:23:24;42.68;36.35;52.84;;
72415;Laerm;60995;52.154;4.498;2023-06-24T01:26:26;42.91;37.12;53.32;;
72415;Laerm;60995;52.154;4.498;2023-06-24T01:31:47;43.25;36.60;51.94;;
72415;Laerm;60995;52.154;4.498;2023-06-24T01:34:29;43.39;36.84;58.21;;
72415;Laerm;60995;52.154;4.498;2023-06-24T01:37:16;42.86;36.13;51.66;;
72415;Laerm;60995;52.154;4.498;2023-06-24T01:39:48;43.40;36.07;55.01;;
72415;Laerm;60995;52.154;4.498;2023-06-24T01:42:10;43.31;35.95;53.03;;
72415;Laerm;60995;52.154;4.498;2023-06-24T01:44:29;43.64;36.46;53.77;;
72415;Laerm;60995;52.154;4.498;2023-06-24T01:46:52;42.62;36.31;52.23;;
72415;Laerm;60995;52.154;4.498;2023-06-24T01:49:14;43.83;36.60;54.04;;
72415;Laerm;60995;52.154;4.498;2023-06-24T01:51:34;44.64;36.37;67.40;;
72415;Laerm;60995;52.154;4.498;2023-06-24T01:53:59;48.62;37.43;65.03;;
72415;Laerm;60995;52.154;4.498;2023-06-24T01:56:18;43.60;35.99;52.34;;
72415;Laerm;60995;52.154;4.498;2023-06-24T01:58:38;42.37;36.41;53.52;;
72415;Laerm;60995;52.154;4.498;2023-06-24T02:00:57;50.16;36.15;70.71;;
72415;Laerm;60995;52.154;4.498;2023-06-24T02:03:15;45.35;36.35;63.42;;
72415;Laerm;60995;52.154;4.498;2023-06-24T02:05:34;42.38;36.40;51.79;;
72415;Laerm;60995;52.154;4.498;2023-06-24T02:07:53;44.15;36.23;60.88;;
72415;Laerm;60995;52.154;4.498;2023-06-24T02:10:11;46.77;35.81;68.74;;
72415;Laerm;60995;52.154;4.498;2023-06-24T02:12:28;43.49;36.55;55.51;;
72415;Laerm;60995;52.154;4.498;2023-06-24T02:14:48;44.16;36.64;53.82;;
72415;Laerm;60995;52.154;4.498;2023-06-24T02:17:08;43.68;37.06;54.57;;
72415;Laerm;60995;52.154;4.498;2023-06-24T02:19:30;43.98;36.70;54.42;;
72415;Laerm;60995;52.154;4.498;2023-06-24T02:21:48;43.17;36.83;55.74;;
72415;Laerm;60995;52.154;4.498;2023-06-24T02:24:08;43.57;37.27;51.84;;
72415;Laerm;60995;52.154;4.498;2023-06-24T02:26:25;43.46;36.56;66.06;;
72415;Laerm;60995;52.154;4.498;2023-06-24T02:28:44;44.82;37.14;63.36;;
72415;Laerm;60995;52.154;4.498;2023-06-24T02:31:02;43.54;37.30;53.99;;
72415;Laerm;60995;52.154;4.498;2023-06-24T02:33:19;44.34;36.67;59.52;;
72415;Laerm;60995;52.154;4.498;2023-06-24T02:35:35;44.59;37.06;54.80;;
72415;Laerm;60995;52.154;4.498;2023-06-24T02:37:51;43.68;36.63;57.11;;
72415;Laerm;60995;52.154;4.498;2023-06-24T02:40:08;43.30;37.02;52.09;;
72415;Laerm;60995;52.154;4.498;2023-06-24T02:42:26;43.79;37.03;58.62;;
72415;Laerm;60995;52.154;4.498;2023-06-24T02:44:42;44.92;37.28;59.88;;
72415;Laerm;60995;52.154;4.498;2023-06-24T02:46:59;45.78;37.43;59.59;;
72415;Laerm;60995;52.154;4.498;2023-06-24T02:49:18;43.39;36.94;52.70;;
72415;Laerm;60995;52.154;4.498;2023-06-24T02:51:38;42.63;37.00;52.71;;
72415;Laerm;60995;52.154;4.498;2023-06-24T02:53:55;46.67;36.90;71.00;;
72415;Laerm;60995;52.154;4.498;2023-06-24T02:56:14;45.98;37.33;62.19;;
72415;Laerm;60995;52.154;4.498;2023-06-24T02:58:31;44.05;37.31;64.33;;
72415;Laerm;60995;52.154;4.498;2023-06-24T03:00:48;43.37;36.79;56.40;;
72415;Laerm;60995;52.154;4.498;2023-06-24T03:03:06;43.56;36.98;55.07;;
72415;Laerm;60995;52.154;4.498;2023-06-24T03:05:23;43.45;36.98;51.83;;
72415;Laerm;60995;52.154;4.498;2023-06-24T03:07:41;44.78;38.37;60.74;;
72415;Laerm;60995;52.154;4.498;2023-06-24T03:09:58;45.46;37.42;54.53;;
72415;Laerm;60995;52.154;4.498;2023-06-24T03:12:14;46.17;39.62;54.98;;
72415;Laerm;60995;52.154;4.498;2023-06-24T03:14:31;46.54;38.55;60.77;;
72415;Laerm;60995;52.154;4.498;2023-06-24T03:16:47;46.12;39.49;62.82;;
72415;Laerm;60995;52.154;4.498;2023-06-24T03:19:04;44.53;38.30;56.13;;
72415;Laerm;60995;52.154;4.498;2023-06-24T03:21:21;44.99;37.33;58.54;;
72415;Laerm;60995;52.154;4.498;2023-06-24T03:23:37;45.89;38.86;60.45;;
72415;Laerm;60995;52.154;4.498;2023-06-24T03:25:53;46.86;38.53;66.00;;
72415;Laerm;60995;52.154;4.498;2023-06-24T03:28:09;44.41;38.05;55.87;;
72415;Laerm;60995;52.154;4.498;2023-06-24T03:30:26;45.60;37.92;57.99;;
72415;Laerm;60995;52.154;4.498;2023-06-24T03:32:43;44.87;37.45;61.15;;
72415;Laerm;60995;52.154;4.498;2023-06-24T03:35:03;46.89;38.22;73.23;;
72415;Laerm;60995;52.154;4.498;2023-06-24T03:37:20;45.26;38.27;60.05;;
72415;Laerm;60995;52.154;4.498;2023-06-24T03:39:36;45.53;37.61;54.57;;
72415;Laerm;60995;52.154;4.498;2023-06-24T03:41:52;45.17;37.28;59.65;;
72415;Laerm;60995;52.154;4.498;2023-06-24T03:44:08;45.94;37.96;57.87;;
72415;Laerm;60995;52.154;4.498;2023-06-24T03:46:24;45.26;37.94;61.23;;
72415;Laerm;60995;52.154;4.498;2023-06-24T03:48:43;46.47;37.91;58.73;;
72415;Laerm;60995;52.154;4.498;2023-06-24T03:50:59;45.62;37.95;62.68;;
72415;Laerm;60995;52.154;4.498;2023-06-24T03:53:15;45.07;38.41;59.43;;
72415;Laerm;60995;52.154;4.498;2023-06-24T03:55:31;46.06;37.90;61.58;;
72415;Laerm;60995;52.154;4.498;2023-06-24T03:57:48;46.42;37.54;71.76;;
72415;Laerm;60995;52.154;4.498;2023-06-24T04:00:04;44.54;37.93;60.17;;
72415;Laerm;60995;52.154;4.498;2023-06-24T04:02:36;46.06;38.36;62.37;;
72415;Laerm;60995;52.154;4.498;2023-06-24T04:04:52;46.42;38.31;60.40;;
72415;Laerm;60995;52.154;4.498;2023-06-24T04:07:09;44.56;38.06;53.12;;
72415;Laerm;60995;52.154;4.498;2023-06-24T04:09:25;44.96;38.31;55.77;;
72415;Laerm;60995;52.154;4.498;2023-06-24T04:11:41;44.74;37.40;53.22;;
72415;Laerm;60995;52.154;4.498;2023-06-24T04:13:57;45.12;37.75;69.82;;
72415;Laerm;60995;52.154;4.498;2023-06-24T04:16:14;45.05;37.08;62.61;;
72415;Laerm;60995;52.154;4.498;2023-06-24T04:18:31;45.97;38.29;56.26;;
72415;Laerm;60995;52.154;4.498;2023-06-24T04:20:47;44.55;38.23;53.77;;
72415;Laerm;60995;52.154;4.498;2023-06-24T04:23:04;45.42;37.81;66.70;;
72415;Laerm;60995;52.154;4.498;2023-06-24T04:25:25;45.00;37.66;63.51;;
72415;Laerm;60995;52.154;4.498;2023-06-24T04:27:41;48.00;38.10;63.70;;
72415;Laerm;60995;52.154;4.498;2023-06-24T04:29:57;45.70;38.39;55.34;;
72415;Laerm;60995;52.154;4.498;2023-06-24T04:32:14;46.23;37.81;64.25;;
72415;Laerm;60995;52.154;4.498;2023-06-24T04:34:30;46.91;38.80;64.19;;
72415;Laerm;60995;52.154;4.498;2023-06-24T04:36:46;46.42;38.78;58.07;;
72415;Laerm;60995;52.154;4.498;2023-06-24T04:39:02;46.75;38.74;56.08;;
72415;Laerm;60995;52.154;4.498;2023-06-24T04:41:19;46.35;38.78;57.00;;
72415;Laerm;60995;52.154;4.498;2023-06-24T04:43:35;56.54;38.71;73.74;;
72415;Laerm;60995;52.154;4.498;2023-06-24T04:45:51;52.44;38.87;69.29;;
72415;Laerm;60995;52.154;4.498;2023-06-24T04:48:11;47.46;38.23;63.86;;
72415;Laerm;60995;52.154;4.498;2023-06-24T04:50:27;44.55;37.75;56.27;;
72415;Laerm;60995;52.154;4.498;2023-06-24T04:52:43;45.05;37.75;53.71;;
72415;Laerm;60995;52.154;4.498;2023-06-24T04:55:00;47.95;37.65;69.19;;
72415;Laerm;60995;52.154;4.498;2023-06-24T04:57:29;47.85;38.38;61.83;;
72415;Laerm;60995;52.154;4.498;2023-06-24T04:59:46;46.07;37.48;56.81;;
72415;Laerm;60995;52.154;4.498;2023-06-24T05:02:02;45.48;37.90;54.58;;
72415;Laerm;60995;52.154;4.498;2023-06-24T05:04:18;46.86;38.53;64.15;;
72415;Laerm;60995;52.154;4.498;2023-06-24T05:06:35;47.12;38.72;59.03;;
72415;Laerm;60995;52.154;4.498;2023-06-24T05:08:51;44.65;37.42;54.53;;
72415;Laerm;60995;52.154;4.498;2023-06-24T05:11:07;47.49;37.65;62.72;;
72415;Laerm;60995;52.154;4.498;2023-06-24T05:13:23;46.32;37.86;57.14;;
72415;Laerm;60995;52.154;4.498;2023-06-24T05:15:39;47.02;37.22;59.61;;
72415;Laerm;60995;52.154;4.498;2023-06-24T05:17:56;45.04;36.68;54.96;;
72415;Laerm;60995;52.154;4.498;2023-06-24T05:20:12;45.44;36.93;59.59;;
72415;Laerm;60995;52.154;4.498;2023-06-24T05:22:28;48.74;37.43;64.52;;
72415;Laerm;60995;52.154;4.498;2023-06-24T05:24:44;46.17;37.06;63.39;;
72415;Laerm;60995;52.154;4.498;2023-06-24T05:27:06;46.70;36.67;66.59;;
72415;Laerm;60995;52.154;4.498;2023-06-24T05:29:22;46.34;36.73;57.71;;
72415;Laerm;60995;52.154;4.498;2023-06-24T05:31:40;48.41;37.80;66.90;;
72415;Laerm;60995;52.154;4.498;2023-06-24T05:33:57;47.70;37.24;63.78;;
72415;Laerm;60995;52.154;4.498;2023-06-24T05:36:13;48.02;36.84;58.01;;
72415;Laerm;60995;52.154;4.498;2023-06-24T05:38:29;49.53;38.21;71.47;;
72415;Laerm;60995;52.154;4.498;2023-06-24T05:40:45;48.89;38.63;59.08;;
72415;Laerm;60995;52.154;4.498;2023-06-24T05:43:01;48.08;37.04;59.22;;
72415;Laerm;60995;52.154;4.498;2023-06-24T05:45:19;48.38;38.23;59.10;;
72415;Laerm;60995;52.154;4.498;2023-06-24T05:47:37;48.64;38.47;60.50;;
72415;Laerm;60995;52.154;4.498;2023-06-24T05:49:54;50.94;37.17;61.13;;
72415;Laerm;60995;52.154;4.498;2023-06-24T05:52:11;52.16;37.96;63.22;;
72415;Laerm;60995;52.154;4.498;2023-06-24T05:54:28;48.18;37.10;59.85;;
72415;Laerm;60995;52.154;4.498;2023-06-24T05:56:44;49.31;37.99;70.27;;
72415;Laerm;60995;52.154;4.498;2023-06-24T05:59:00;49.53;36.97;73.94;;
72415;Laerm;60995;52.154;4.498;2023-06-24T06:01:16;48.50;36.60;59.06;;
72415;Laerm;60995;52.154;4.498;2023-06-24T06:03:33;48.59;37.68;59.72;;
72415;Laerm;60995;52.154;4.498;2023-06-24T06:05:49;51.60;37.94;75.85;;
72415;Laerm;60995;52.154;4.498;2023-06-24T06:08:05;53.80;39.87;64.99;;
72415;Laerm;60995;52.154;4.498;2023-06-24T06:10:21;52.88;39.24;62.65;;
72415;Laerm;60995;52.154;4.498;2023-06-24T06:12:37;52.11;41.74;64.56;;
72415;Laerm;60995;52.154;4.498;2023-06-24T06:14:54;52.38;42.12;61.74;;
72415;Laerm;60995;52.154;4.498;2023-06-24T06:17:12;49.88;37.27;59.69;;
72415;Laerm;60995;52.154;4.498;2023-06-24T06:19:28;52.51;37.90;62.21;;
72415;Laerm;60995;52.154;4.498;2023-06-24T06:21:44;50.45;38.01;62.56;;
72415;Laerm;60995;52.154;4.498;2023-06-24T06:24:00;53.52;40.08;62.04;;
72415;Laerm;60995;52.154;4.498;2023-06-24T06:26:17;49.76;37.39;60.62;;
72415;Laerm;60995;52.154;4.498;2023-06-24T06:28:33;54.23;38.85;76.41;;
72415;Laerm;60995;52.154;4.498;2023-06-24T06:30:49;53.36;41.66;67.70;;
72415;Laerm;60995;52.154;4.498;2023-06-24T06:33:05;51.26;40.19;66.71;;
72415;Laerm;60995;52.154;4.498;2023-06-24T06:35:22;53.05;38.51;71.70;;
72415;Laerm;60995;52.154;4.498;2023-06-24T06:37:38;51.51;37.03;70.04;;
72415;Laerm;60995;52.154;4.498;2023-06-24T06:39:54;50.62;37.52;64.56;;
72415;Laerm;60995;52.154;4.498;2023-06-24T06:42:11;51.21;37.14;62.24;;
72415;Laerm;60995;52.154;4.498;2023-06-24T06:44:27;51.88;38.48;65.02;;
72415;Laerm;60995;52.154;4.498;2023-06-24T06:46:43;50.02;37.10;61.76;;
72415;Laerm;60995;52.154;4.498;2023-06-24T06:49:00;49.98;37.87;61.07;;
72415;Laerm;60995;52.154;4.498;2023-06-24T06:51:16;51.06;39.63;61.69;;
72415;Laerm;60995;52.154;4.498;2023-06-24T06:53:34;50.64;39.01;61.07;;
72415;Laerm;60995;52.154;4.498;2023-06-24T06:55:51;50.52;38.45;61.28;;
72415;Laerm;60995;52.154;4.498;2023-06-24T06:58:07;50.71;37.72;60.87;;
72415;Laerm;60995;52.154;4.498;2023-06-24T07:00:23;50.63;37.67;62.34;;
72415;Laerm;60995;52.154;4.498;2023-06-24T07:02:39;51.30;36.89;65.03;;
72415;Laerm;60995;52.154;4.498;2023-06-24T07:04:56;50.50;38.50;65.42;;
72415;Laerm;60995;52.154;4.498;2023-06-24T07:07:12;50.07;36.34;61.22;;
72415;Laerm;60995;52.154;4.498;2023-06-24T07:09:28;50.70;36.79;65.09;;
72415;Laerm;60995;52.154;4.498;2023-06-24T07:11:45;50.22;37.59;61.66;;
72415;Laerm;60995;52.154;4.498;2023-06-24T07:14:01;51.32;39.73;61.59;;
72415;Laerm;60995;52.154;4.498;2023-06-24T07:16:18;50.10;37.27;61.16;;
72415;Laerm;60995;52.154;4.498;2023-06-24T07:18:34;51.41;38.28;61.93;;
72415;Laerm;60995;52.154;4.498;2023-06-24T07:20:53;50.92;37.84;63.91;;
72415;Laerm;60995;52.154;4.498;2023-06-24T07:23:09;51.46;38.59;62.81;;
72415;Laerm;60995;52.154;4.498;2023-06-24T07:25:26;51.05;37.97;61.92;;
72415;Laerm;60995;52.154;4.498;2023-06-24T07:27:44;51.09;37.05;64.23;;
72415;Laerm;60995;52.154;4.498;2023-06-24T07:30:00;52.74;39.99;65.86;;
72415;Laerm;60995;52.154;4.498;2023-06-24T07:32:17;51.58;37.99;66.60;;
72415;Laerm;60995;52.154;4.498;2023-06-24T07:34:33;51.30;37.92;68.63;;
72415;Laerm;60995;52.154;4.498;2023-06-24T07:36:49;51.18;39.01;61.74;;
72415;Laerm;60995;52.154;4.498;2023-06-24T07:39:06;51.43;39.19;62.06;;
72415;Laerm;60995;52.154;4.498;2023-06-24T07:41:23;51.31;38.53;62.33;;
72415;Laerm;60995;52.154;4.498;2023-06-24T07:43:39;51.14;38.08;62.84;;
72415;Laerm;60995;52.154;4.498;2023-06-24T07:45:55;51.78;39.22;62.92;;
72415;Laerm;60995;52.154;4.498;2023-06-24T07:48:11;52.45;39.67;68.12;;
72415;Laerm;60995;52.154;4.498;2023-06-24T07:50:28;51.62;37.87;65.92;;
72415;Laerm;60995;52.154;4.498;2023-06-24T07:52:44;51.41;37.65;64.04;;
72415;Laerm;60995;52.154;4.498;2023-06-24T07:55:00;51.81;40.18;62.74;;
72415;Laerm;60995;52.154;4.498;2023-06-24T07:57:16;51.37;37.76;66.84;;
72415;Laerm;60995;52.154;4.498;2023-06-24T07:59:33;51.71;40.73;64.50;;
72415;Laerm;60995;52.154;4.498;2023-06-24T08:01:49;50.88;38.75;62.00;;
72415;Laerm;60995;52.154;4.498;2023-06-24T08:04:05;51.33;39.74;64.79;;
72415;Laerm;60995;52.154;4.498;2023-06-24T08:06:22;50.86;38.44;65.22;;
72415;Laerm;60995;52.154;4.498;2023-06-24T08:08:38;50.87;38.06;62.10;;
72415;Laerm;60995;52.154;4.498;2023-06-24T08:10:54;51.40;40.01;62.56;;
72415;Laerm;60995;52.154;4.498;2023-06-24T08:13:11;51.28;39.58;62.72;;
72415;Laerm;60995;52.154;4.498;2023-06-24T08:15:27;51.96;40.18;67.00;;
72415;Laerm;60995;52.154;4.498;2023-06-24T08:17:43;51.68;40.58;65.33;;
72415;Laerm;60995;52.154;4.498;2023-06-24T08:20:01;51.37;41.30;61.65;;
72415;Laerm;60995;52.154;4.498;2023-06-24T08:22:17;50.62;39.86;65.99;;
72415;Laerm;60995;52.154;4.498;2023-06-24T08:24:33;50.99;40.71;64.50;;
72415;Laerm;60995;52.154;4.498;2023-06-24T08:26:49;50.76;40.50;61.93;;
72415;Laerm;60995;52.154;4.498;2023-06-24T08:29:06;52.92;39.91;75.44;;
72415;Laerm;60995;52.154;4.498;2023-06-24T08:31:23;51.58;41.33;61.79;;
72415;Laerm;60995;52.154;4.498;2023-06-24T08:33:44;53.08;40.54;68.52;;
72415;Laerm;60995;52.154;4.498;2023-06-24T08:36:01;53.60;41.29;64.00;;
72415;Laerm;60995;52.154;4.498;2023-06-24T08:38:17;52.23;41.55;63.06;;
72415;Laerm;60995;52.154;4.498;2023-06-24T08:40:34;54.55;39.94;84.25;;
72415;Laerm;60995;52.154;4.498;2023-06-24T08:42:50;53.02;39.72;62.92;;
72415;Laerm;60995;52.154;4.498;2023-06-24T08:45:07;52.53;41.93;65.40;;
72415;Laerm;60995;52.154;4.498;2023-06-24T08:47:24;51.71;40.65;69.45;;
72415;Laerm;60995;52.154;4.498;2023-06-24T08:49:53;51.04;40.15;65.46;;
72415;Laerm;60995;52.154;4.498;2023-06-24T08:52:15;52.30;43.11;71.00;;
72415;Laerm;60995;52.154;4.498;2023-06-24T08:54:35;51.46;41.59;66.06;;
72415;Laerm;60995;52.154;4.498;2023-06-24T08:56:53;52.14;39.55;69.39;;
72415;Laerm;60995;52.154;4.498;2023-06-24T08:59:09;52.00;43.02;71.73;;
72415;Laerm;60995;52.154;4.498;2023-06-24T09:01:27;51.42;42.65;62.20;;
72415;Laerm;60995;52.154;4.498;2023-06-24T09:03:43;51.44;41.49;63.45;;
72415;Laerm;60995;52.154;4.498;2023-06-24T09:05:59;51.59;41.09;61.58;;
72415;Laerm;60995;52.154;4.498;2023-06-24T09:08:15;51.68;41.76;62.56;;
72415;Laerm;60995;52.154;4.498;2023-06-24T09:10:37;51.44;43.98;62.08;;
72415;Laerm;60995;52.154;4.498;2023-06-24T09:12:54;52.39;44.00;70.45;;
72415;Laerm;60995;52.154;4.498;2023-06-24T09:15:14;52.94;41.56;67.35;;
72415;Laerm;60995;52.154;4.498;2023-06-24T09:17:31;51.48;40.62;60.62;;
72415;Laerm;60995;52.154;4.498;2023-06-24T09:19:49;53.68;40.84;77.32;;
72415;Laerm;60995;52.154;4.498;2023-06-24T09:22:07;52.66;40.83;64.17;;
72415;Laerm;60995;52.154;4.498;2023-06-24T09:24:27;51.11;38.94;61.70;;
72415;Laerm;60995;52.154;4.498;2023-06-24T09:26:46;50.62;40.85;61.80;;
72415;Laerm;60995;52.154;4.498;2023-06-24T09:29:03;50.97;38.61;61.98;;
72415;Laerm;60995;52.154;4.498;2023-06-24T09:31:20;52.38;42.58;73.72;;
72415;Laerm;60995;52.154;4.498;2023-06-24T09:33:36;51.10;40.28;61.31;;
72415;Laerm;60995;52.154;4.498;2023-06-24T09:35:52;51.15;41.02;61.44;;
72415;Laerm;60995;52.154;4.498;2023-06-24T09:38:09;51.24;39.63;62.85;;
72415;Laerm;60995;52.154;4.498;2023-06-24T09:40:25;51.60;39.61;65.93;;
72415;Laerm;60995;52.154;4.498;2023-06-24T09:42:56;53.09;39.51;81.52;;
72415;Laerm;60995;52.154;4.498;2023-06-24T09:45:12;51.63;41.53;62.04;;
72415;Laerm;60995;52.154;4.498;2023-06-24T09:47:29;51.08;40.33;66.46;;
72415;Laerm;60995;52.154;4.498;2023-06-24T09:49:45;52.98;40.41;64.49;;
72415;Laerm;60995;52.154;4.498;2023-06-24T09:52:04;51.65;41.22;62.59;;
72415;Laerm;60995;52.154;4.498;2023-06-24T09:54:26;52.10;39.45;64.89;;
72415;Laerm;60995;52.154;4.498;2023-06-24T09:56:49;50.82;39.66;62.56;;
72415;Laerm;60995;52.154;4.498;2023-06-24T09:59:11;51.49;39.00;64.33;;
72415;Laerm;60995;52.154;4.498;2023-06-24T10:01:28;51.40;40.32;62.02;;
72415;Laerm;60995;52.154;4.498;2023-06-24T10:03:45;52.06;41.10;63.48;;
72415;Laerm;60995;52.154;4.498;2023-06-24T10:06:02;51.91;41.36;63.19;;
72415;Laerm;60995;52.154;4.498;2023-06-24T10:08:19;52.03;40.38;62.18;;
72415;Laerm;60995;52.154;4.498;2023-06-24T10:10:36;52.05;41.43;62.91;;
72415;Laerm;60995;52.154;4.498;2023-06-24T10:12:52;51.22;40.91;62.10;;
72415;Laerm;60995;52.154;4.498;2023-06-24T10:15:09;51.32;39.48;62.79;;
72415;Laerm;60995;52.154;4.498;2023-06-24T10:17:25;51.68;40.80;62.39;;
72415;Laerm;60995;52.154;4.498;2023-06-24T10:19:42;51.82;39.53;62.37;;
72415;Laerm;60995;52.154;4.498;2023-06-24T10:21:59;53.04;39.83;63.48;;
72415;Laerm;60995;52.154;4.498;2023-06-24T10:24:36;53.41;40.26;71.35;;
72415;Laerm;60995;52.154;4.498;2023-06-24T10:26:53;55.63;41.42;76.54;;
72415;Laerm;60995;52.154;4.498;2023-06-24T10:29:10;53.89;40.81;64.33;;
72415;Laerm;60995;52.154;4.498;2023-06-24T10:33:58;53.47;41.24;66.86;;
72415;Laerm;60995;52.154;4.498;2023-06-24T10:36:31;53.30;40.74;65.19;;
72415;Laerm;60995;52.154;4.498;2023-06-24T10:38:55;53.53;41.42;67.21;;
72415;Laerm;60995;52.154;4.498;2023-06-24T10:41:15;52.40;39.61;68.29;;
72415;Laerm;60995;52.154;4.498;2023-06-24T10:43:32;52.54;40.04;75.57;;
72415;Laerm;60995;52.154;4.498;2023-06-24T10:45:56;53.51;41.65;73.04;;
72415;Laerm;60995;52.154;4.498;2023-06-24T10:48:13;51.06;39.28;61.29;;
72415;Laerm;60995;52.154;4.498;2023-06-24T10:50:30;52.78;41.28;71.55;;
72415;Laerm;60995;52.154;4.498;2023-06-24T10:52:49;55.62;41.64;76.54;;
72415;Laerm;60995;52.154;4.498;2023-06-24T10:55:07;51.43;39.30;66.14;;
72415;Laerm;60995;52.154;4.498;2023-06-24T10:57:27;50.85;39.35;67.16;;
72415;Laerm;60995;52.154;4.498;2023-06-24T10:59:47;52.36;40.57;62.84;;
72415;Laerm;60995;52.154;4.498;2023-06-24T11:02:04;52.40;40.79;62.66;;
72415;Laerm;60995;52.154;4.498;2023-06-24T11:04:20;51.61;40.80;65.07;;
72415;Laerm;60995;52.154;4.498;2023-06-24T11:06:36;52.32;40.99;62.38;;
72415;Laerm;60995;52.154;4.498;2023-06-24T11:08:52;52.96;40.65;63.14;;
72415;Laerm;60995;52.154;4.498;2023-06-24T11:11:20;51.79;41.31;62.82;;
72415;Laerm;60995;52.154;4.498;2023-06-24T11:13:41;51.03;39.64;61.58;;
72415;Laerm;60995;52.154;4.498;2023-06-24T11:16:00;51.72;40.45;61.58;;
72415;Laerm;60995;52.154;4.498;2023-06-24T11:18:17;52.45;42.84;61.92;;
72415;Laerm;60995;52.154;4.498;2023-06-24T11:20:33;51.86;40.60;66.85;;
72415;Laerm;60995;52.154;4.498;2023-06-24T11:22:49;52.35;43.13;61.67;;
72415;Laerm;60995;52.154;4.498;2023-06-24T11:25:06;51.59;40.05;66.89;;
72415;Laerm;60995;52.154;4.498;2023-06-24T11:27:31;51.16;40.29;64.89;;
72415;Laerm;60995;52.154;4.498;2023-06-24T11:29:47;53.17;40.13;62.17;;
72415;Laerm;60995;52.154;4.498;2023-06-24T11:32:08;56.79;45.91;61.88;;
72415;Laerm;60995;52.154;4.498;2023-06-24T11:34:24;50.86;40.96;61.31;;
72415;Laerm;60995;52.154;4.498;2023-06-24T11:36:41;63.50;41.52;89.89;;
72415;Laerm;60995;52.154;4.498;2023-06-24T11:38:57;52.46;41.02;61.42;;
72415;Laerm;60995;52.154;4.498;2023-06-24T11:41:14;51.06;39.87;62.22;;
72415;Laerm;60995;52.154;4.498;2023-06-24T11:43:31;51.31;41.20;62.17;;
72415;Laerm;60995;52.154;4.498;2023-06-24T11:45:48;52.31;43.03;61.48;;
72415;Laerm;60995;52.154;4.498;2023-06-24T11:48:04;56.73;39.42;72.07;;
72415;Laerm;60995;52.154;4.498;2023-06-24T11:50:26;53.74;41.85;68.58;;
72415;Laerm;60995;52.154;4.498;2023-06-24T11:52:48;50.82;42.12;61.57;;
72415;Laerm;60995;52.154;4.498;2023-06-24T11:55:22;51.94;40.09;67.48;;
72415;Laerm;60995;52.154;4.498;2023-06-24T11:58:04;68.28;41.03;88.25;;
72415;Laerm;60995;52.154;4.498;2023-06-24T12:00:29;50.58;41.05;61.05;;
72415;Laerm;60995;52.154;4.498;2023-06-24T12:02:49;51.14;40.74;63.94;;
72415;Laerm;60995;52.154;4.498;2023-06-24T12:05:06;53.53;41.13;69.51;;
72415;Laerm;60995;52.154;4.498;2023-06-24T12:07:22;50.60;37.22;61.23;;
72415;Laerm;60995;52.154;4.498;2023-06-24T12:09:38;53.83;42.52;65.75;;
72415;Laerm;60995;52.154;4.498;2023-06-24T12:11:54;55.07;43.52;66.42;;
72415;Laerm;60995;52.154;4.498;2023-06-24T12:14:11;53.54;39.92;66.04;;
72415;Laerm;60995;52.154;4.498;2023-06-24T12:16:28;50.54;40.77;60.80;;
72415;Laerm;60995;52.154;4.498;2023-06-24T12:18:45;50.38;40.99;63.07;;
72415;Laerm;60995;52.154;4.498;2023-06-24T12:21:01;50.28;40.23;60.46;;
72415;Laerm;60995;52.154;4.498;2023-06-24T12:23:17;49.83;38.89;61.42;;
72415;Laerm;60995;52.154;4.498;2023-06-24T12:25:34;51.00;39.27;71.27;;
72415;Laerm;60995;52.154;4.498;2023-06-24T12:27:50;50.35;40.05;60.25;;
72415;Laerm;60995;52.154;4.498;2023-06-24T12:30:08;50.73;39.68;75.64;;
72415;Laerm;60995;52.154;4.498;2023-06-24T12:32:24;50.62;38.52;60.06;;
72415;Laerm;60995;52.154;4.498;2023-06-24T12:34:42;49.91;37.48;60.67;;
72415;Laerm;60995;52.154;4.498;2023-06-24T12:36:58;50.04;40.65;61.02;;
72415;Laerm;60995;52.154;4.498;2023-06-24T12:39:14;50.07;40.02;60.65;;
72415;Laerm;60995;52.154;4.498;2023-06-24T12:41:31;50.86;39.30;60.68;;
72415;Laerm;60995;52.154;4.498;2023-06-24T12:43:48;50.19;39.38;65.24;;
72415;Laerm;60995;52.154;4.498;2023-06-24T12:46:04;51.45;39.76;71.86;;
72415;Laerm;60995;52.154;4.498;2023-06-24T12:48:20;49.79;38.30;61.25;;
72415;Laerm;60995;52.154;4.498;2023-06-24T12:50:37;49.19;39.42;60.60;;
72415;Laerm;60995;52.154;4.498;2023-06-24T12:52:53;49.75;37.93;60.17;;
72415;Laerm;60995;52.154;4.498;2023-06-24T12:55:09;59.61;39.54;74.12;;
72415;Laerm;60995;52.154;4.498;2023-06-24T12:57:25;49.49;40.85;59.26;;
72415;Laerm;60995;52.154;4.498;2023-06-24T12:59:42;49.49;38.99;61.34;;
72415;Laerm;60995;52.154;4.498;2023-06-24T13:01:58;51.80;41.75;62.04;;